Portada
METAR-TAF:

METAR-TAF

Aeropuertos :

El Hierro, España

Aeropuerto de El Hierro

latitud: 27-49N, longitud: 017-53W, altitud: 32 m

Observación

El informe se hizo hace 29 minutos, a las 15:30 UTC
Viento 3 kt con dirección variable
Temperatura 22°C
Humedad 73%
Presión 1017 hPa
Visibilidad 10 km o más
Escasas nubes a una altura de 2500 ft

METAR: GCHI 201530Z VRB03KT 9999 FEW025 22/17 Q1017

Hora: 15:59 (15:59 UTC)

Pronóstico

El informe se hizo hace 1 hora y 59 minutos, a las 14:00 UTC
Pronóstico válido del 20 a las 15 UTC al 21 a las 15 UTC
Viento 4 kt del este
Visibilidad 10 km o más
Nubes dispersas a una altura de 2500 ft
Evolucionando progresivamente
del 21 a las 12 UTC al 21 a las 14 UTC
Viento 12 kt del norte
Probabilidad 30% :
Temporalmente
del 21 a las 06 UTC al 21 a las 15 UTC
Visibilidad: 4000 m
lluvia

TAF: GCHI 201400Z 2015/2115 10004KT 9999 SCT025 TX23/2113Z TN19/2106Z BECMG 2112/2114 35012KT PROB30 TEMPO 2106/2115 4000 RA

Observaciones y pronósticos meteorológicos de más de 4000 aeropuertos (mensajes METAR y TAF).

Los puntos amarillos y rojos representan las estaciones disponibles.

Ponga el ratón en el punto deseado para ver el nombre de la estación.

Haga clic para ver las observaciones y los pronósticos meteorológicos.

Para cambiar el mapa : haga clic en los botones verdes con una cruz de color negro para hacer un zoom, en el botón verde con un guión para alejar o en las flechas verdes para mapas adyacentes.


METAR-TAF: